createdAt,value
2022-12-01T00:02:06.812Z,92.78
2022-12-01T00:04:33.959Z,92.81
2022-12-01T00:07:00.961Z,92.79
2022-12-01T00:09:46.549Z,92.64
2022-12-01T00:12:13.769Z,93.69
2022-12-01T00:14:40.671Z,92.98
2022-12-01T00:17:07.522Z,93.60
2022-12-01T00:19:34.674Z,93.93
2022-12-01T00:22:01.857Z,94.27
2022-12-01T00:24:28.802Z,94.76
2022-12-01T00:26:55.887Z,94.41
2022-12-01T00:29:22.767Z,94.16
2022-12-01T00:31:49.862Z,94.15
2022-12-01T00:34:24.932Z,93.88
2022-12-01T00:36:51.981Z,93.86
2022-12-01T00:39:19.047Z,93.81
2022-12-01T00:41:45.948Z,93.91
2022-12-01T00:44:12.796Z,93.15
2022-12-01T00:46:39.902Z,93.24
2022-12-01T00:49:07.013Z,93.52
2022-12-01T00:51:34.140Z,92.71
2022-12-01T00:54:01.025Z,92.96
2022-12-01T00:56:28.135Z,92.82
2022-12-01T00:58:55.285Z,93.02
2022-12-01T01:01:22.210Z,92.34
2022-12-01T01:03:49.334Z,92.49
2022-12-01T01:06:16.675Z,92.42
2022-12-01T01:08:43.543Z,92.26
2022-12-01T01:11:10.624Z,92.05
2022-12-01T01:13:37.883Z,92.38
2022-12-01T01:16:08.451Z,92.67
2022-12-01T01:18:35.566Z,92.62
2022-12-01T01:21:06.839Z,92.32
2022-12-01T01:23:34.428Z,92.04
2022-12-01T01:26:29.416Z,92.18
2022-12-01T01:28:58.917Z,92.36
2022-12-01T01:31:28.428Z,92.14
2022-12-01T01:33:57.074Z,92.39
2022-12-01T01:36:25.084Z,92.29
2022-12-01T01:38:53.223Z,92.56
2022-12-01T01:41:22.000Z,92.80
2022-12-01T01:43:55.368Z,92.47
2022-12-01T01:46:26.652Z,92.69
2022-12-01T01:49:11.314Z,92.15
2022-12-01T01:51:38.127Z,92.56
2022-12-01T01:54:17.854Z,92.16
2022-12-01T01:56:48.852Z,92.62
2022-12-01T01:59:22.300Z,92.30
2022-12-01T02:02:05.982Z,92.33
2022-12-01T02:04:35.305Z,92.39
2022-12-01T02:07:03.164Z,92.82
2022-12-01T02:09:30.016Z,92.77
2022-12-01T02:12:30.317Z,93.39
2022-12-01T02:15:32.237Z,93.15
2022-12-01T02:18:11.309Z,93.40
2022-12-01T02:20:50.220Z,93.40
2022-12-01T02:23:32.357Z,93.72
2022-12-01T02:26:42.545Z,93.54
2022-12-01T02:29:33.517Z,93.91
2022-12-01T02:32:16.677Z,93.99
2022-12-01T02:35:28.375Z,93.49
2022-12-01T02:37:55.202Z,93.60
2022-12-01T02:40:26.298Z,93.52
2022-12-01T02:43:05.472Z,93.70
2022-12-01T02:45:51.406Z,93.75
2022-12-01T02:48:53.174Z,93.68
2022-12-01T02:51:26.144Z,92.93
2022-12-01T02:53:55.826Z,93.22
2022-12-01T02:56:23.844Z,92.67
2022-12-01T02:58:51.429Z,92.82
2022-12-01T03:01:30.743Z,92.78
2022-12-01T03:04:08.862Z,92.35
2022-12-01T03:06:55.395Z,92.57
2022-12-01T03:09:54.949Z,92.63
2022-12-01T03:12:43.619Z,92.52
2022-12-01T03:15:35.814Z,92.58
2022-12-01T03:18:31.002Z,92.32
2022-12-01T03:21:21.235Z,91.82
2022-12-01T03:23:55.001Z,91.86
2022-12-01T03:26:25.055Z,92.04
2022-12-01T03:29:02.097Z,91.78
2022-12-01T03:31:40.702Z,91.64
2022-12-01T03:34:28.510Z,91.59
2022-12-01T03:37:06.994Z,91.78
2022-12-01T03:39:38.616Z,91.77
2022-12-01T03:42:12.677Z,91.80
2022-12-01T03:44:47.601Z,91.68
2022-12-01T03:47:20.729Z,92.33
2022-12-01T03:49:51.881Z,92.12
2022-12-01T03:52:45.572Z,92.20
2022-12-01T03:55:12.419Z,91.99
2022-12-01T03:58:01.507Z,92.13
2022-12-01T04:00:31.151Z,92.10
2022-12-01T04:03:03.219Z,91.93
2022-12-01T04:05:32.738Z,92.14
2022-12-01T04:08:00.158Z,92.71
2022-12-01T04:10:27.195Z,92.27
2022-12-01T04:12:59.082Z,92.33
2022-12-01T04:15:27.259Z,92.56
2022-12-01T04:17:54.852Z,92.42
2022-12-01T04:20:22.062Z,91.80
2022-12-01T04:22:48.969Z,91.04
2022-12-01T04:25:16.078Z,90.81
2022-12-01T04:27:42.928Z,91.02
2022-12-01T04:30:10.971Z,90.83
2022-12-01T04:32:42.114Z,90.71
2022-12-01T04:35:12.037Z,90.34
2022-12-01T04:37:39.905Z,89.60
2022-12-01T04:40:08.017Z,89.96
2022-12-01T04:42:34.869Z,90.32
2022-12-01T04:45:01.917Z,90.06
2022-12-01T04:47:28.743Z,89.96
2022-12-01T04:49:55.644Z,89.73
2022-12-01T04:52:22.479Z,89.61
2022-12-01T04:54:49.513Z,89.71
2022-12-01T04:57:16.570Z,89.32
2022-12-01T04:59:43.513Z,89.39
2022-12-01T05:02:10.448Z,89.08
2022-12-01T05:04:41.238Z,89.30
2022-12-01T05:07:08.482Z,88.99
2022-12-01T05:09:35.634Z,88.69
2022-12-01T05:12:02.673Z,88.87
2022-12-01T05:14:29.774Z,88.78
2022-12-01T05:16:58.059Z,88.53
2022-12-01T05:19:43.998Z,88.83
2022-12-01T05:22:10.845Z,88.74
2022-12-01T05:24:37.668Z,88.73
2022-12-01T05:27:04.593Z,87.89
2022-12-01T05:29:32.950Z,88.36
2022-12-01T05:32:00.138Z,87.85
2022-12-01T05:34:27.287Z,88.58
2022-12-01T05:36:54.137Z,88.60
2022-12-01T05:39:20.972Z,88.72
2022-12-01T05:41:47.814Z,88.06
2022-12-01T05:44:14.655Z,88.14
2022-12-01T05:46:41.669Z,87.69
2022-12-01T05:49:08.529Z,87.87
2022-12-01T05:51:35.543Z,87.73
2022-12-01T05:54:02.717Z,87.69
2022-12-01T05:56:29.608Z,88.05
2022-12-01T05:58:56.607Z,88.40
2022-12-01T06:01:23.672Z,88.08
2022-12-01T06:03:52.212Z,88.38
2022-12-01T06:06:19.634Z,87.79
2022-12-01T06:08:46.473Z,88.39
2022-12-01T06:11:13.364Z,88.33
2022-12-01T06:13:40.227Z,88.30
2022-12-01T06:16:07.450Z,87.86
2022-12-01T06:18:37.343Z,88.33
2022-12-01T06:21:06.313Z,87.96
2022-12-01T06:23:33.720Z,88.42
2022-12-01T06:26:00.576Z,88.40
2022-12-01T06:28:27.834Z,88.59
2022-12-01T06:31:01.041Z,88.39
2022-12-01T06:33:29.707Z,88.87
2022-12-01T06:36:06.051Z,89.12
2022-12-01T06:38:34.839Z,88.94
2022-12-01T06:41:02.525Z,89.15
2022-12-01T06:43:29.708Z,89.05
2022-12-01T06:46:01.540Z,89.22
2022-12-01T06:48:30.682Z,89.40
2022-12-01T06:50:59.434Z,89.69
2022-12-01T06:53:28.307Z,89.81
2022-12-01T06:56:00.330Z,89.59
2022-12-01T06:58:27.567Z,89.62
2022-12-01T07:00:54.738Z,89.77
2022-12-01T07:03:21.877Z,89.33
2022-12-01T07:06:00.406Z,89.33
2022-12-01T07:08:31.648Z,89.96
2022-12-01T07:11:05.393Z,89.51
2022-12-01T07:13:33.937Z,88.80
2022-12-01T07:16:03.140Z,88.99
2022-12-01T07:18:31.946Z,89.23
2022-12-01T07:21:03.851Z,89.15
2022-12-01T07:23:31.458Z,88.88
2022-12-01T07:26:07.572Z,89.14
2022-12-01T07:28:34.410Z,88.57
2022-12-01T07:31:06.771Z,88.40
2022-12-01T07:33:34.153Z,88.40
2022-12-01T07:36:01.046Z,88.32
2022-12-01T07:38:29.779Z,88.29
2022-12-01T07:41:02.773Z,88.78
2022-12-01T07:43:31.524Z,88.75
2022-12-01T07:46:12.852Z,88.28
2022-12-01T07:48:42.204Z,88.24
2022-12-01T07:51:13.021Z,88.71
2022-12-01T07:53:40.031Z,87.91
2022-12-01T07:56:08.910Z,88.45
2022-12-01T07:58:37.052Z,88.15
2022-12-01T08:01:08.485Z,88.28
2022-12-01T08:03:35.857Z,88.28
2022-12-01T08:06:03.643Z,88.16
2022-12-01T08:08:34.038Z,88.44
2022-12-01T08:11:06.445Z,87.89
2022-12-01T08:13:34.054Z,87.96
2022-12-01T08:16:04.994Z,87.80
2022-12-01T08:18:38.376Z,88.05
2022-12-01T08:21:08.169Z,87.90
2022-12-01T08:23:35.213Z,87.88
2022-12-01T08:26:07.982Z,88.14
2022-12-01T08:28:36.745Z,88.06
2022-12-01T08:31:12.964Z,87.60
2022-12-01T08:33:39.932Z,88.03
2022-12-01T08:36:07.443Z,87.58
2022-12-01T08:38:34.667Z,87.45
2022-12-01T08:41:03.593Z,87.30
2022-12-01T08:46:17.785Z,87.55
2022-12-01T08:48:44.720Z,87.46
2022-12-01T08:51:17.507Z,88.04
2022-12-01T08:53:49.774Z,87.30
2022-12-01T08:56:26.189Z,87.68
2022-12-01T08:58:54.904Z,87.33
2022-12-01T09:01:22.782Z,87.22
2022-12-01T09:04:04.867Z,87.25
2022-12-01T09:06:42.957Z,86.97
2022-12-01T09:09:13.308Z,87.38
2022-12-01T09:11:40.775Z,87.18
2022-12-01T09:14:07.626Z,87.48
2022-12-01T09:16:34.628Z,86.76
2022-12-01T09:19:01.972Z,87.11
2022-12-01T09:21:32.389Z,87.13
2022-12-01T09:26:47.561Z,86.87
2022-12-01T09:29:17.453Z,86.96
2022-12-01T09:31:44.779Z,86.75
2022-12-01T09:34:14.969Z,86.93
2022-12-01T09:36:42.062Z,86.44
2022-12-01T09:39:13.695Z,87.08
2022-12-01T09:41:56.749Z,87.18
2022-12-01T09:44:55.742Z,86.73
2022-12-01T09:47:28.819Z,86.90
2022-12-01T09:49:58.536Z,86.72
2022-12-01T09:52:28.926Z,86.91
2022-12-01T09:55:00.184Z,86.69
2022-12-01T09:57:36.738Z,87.24
2022-12-01T10:00:17.023Z,86.25
2022-12-01T10:03:10.771Z,86.84
2022-12-01T10:06:25.916Z,86.69
2022-12-01T10:09:10.663Z,86.29
2022-12-01T10:11:42.209Z,86.10
2022-12-01T10:14:19.653Z,85.54
2022-12-01T10:17:18.254Z,86.16
2022-12-01T10:20:04.040Z,85.65
2022-12-01T10:23:05.344Z,85.93
2022-12-01T10:26:07.498Z,85.90
2022-12-01T10:29:00.414Z,85.58
2022-12-01T10:31:36.557Z,85.48
2022-12-01T10:34:16.262Z,85.35
2022-12-01T10:36:43.809Z,85.55
2022-12-01T10:39:44.363Z,85.84
2022-12-01T10:42:29.826Z,85.59
2022-12-01T10:45:01.649Z,85.63
2022-12-01T10:47:29.238Z,85.69
2022-12-01T10:49:56.305Z,85.58
2022-12-01T10:52:38.795Z,85.56
2022-12-01T10:55:27.631Z,85.03
2022-12-01T10:57:57.930Z,84.89
2022-12-01T11:00:57.906Z,85.58
2022-12-01T11:03:30.007Z,84.93
2022-12-01T11:05:59.668Z,85.21
2022-12-01T11:08:54.178Z,84.84
2022-12-01T11:11:29.175Z,85.16
2022-12-01T11:13:59.796Z,85.38
2022-12-01T11:16:43.076Z,84.91
2022-12-01T11:19:21.886Z,85.43
2022-12-01T11:21:57.960Z,84.78
2022-12-01T11:24:33.806Z,84.92
2022-12-01T11:27:01.168Z,85.19
2022-12-01T11:29:38.010Z,84.90
2022-12-01T11:32:18.724Z,85.25
2022-12-01T11:34:59.630Z,85.17
2022-12-01T11:37:33.054Z,85.72
2022-12-01T11:40:23.613Z,84.85
2022-12-01T11:42:53.483Z,85.19
2022-12-01T11:45:20.247Z,85.18
2022-12-01T11:48:15.230Z,84.79
2022-12-01T11:50:47.955Z,84.89
2022-12-01T11:53:34.036Z,85.40
2022-12-01T11:56:33.552Z,84.81
2022-12-01T11:59:04.137Z,85.13
2022-12-01T12:01:58.255Z,85.35
2022-12-01T12:05:05.944Z,85.20
2022-12-01T12:08:06.249Z,85.00
2022-12-01T12:10:55.650Z,85.10
2022-12-01T12:13:35.587Z,85.50
2022-12-01T12:16:33.697Z,85.65
2022-12-01T12:19:33.793Z,85.02
2022-12-01T12:22:11.884Z,85.45
2022-12-01T12:24:57.269Z,85.09
2022-12-01T12:27:55.698Z,85.80
2022-12-01T12:30:46.562Z,86.32
2022-12-01T12:33:32.311Z,86.20
2022-12-01T12:35:59.292Z,86.33
2022-12-01T12:38:35.393Z,86.06
2022-12-01T12:41:22.343Z,86.52
2022-12-01T12:44:04.670Z,86.54
2022-12-01T12:46:49.020Z,86.66
2022-12-01T12:49:54.364Z,86.73
2022-12-01T12:52:26.503Z,86.39
2022-12-01T12:55:00.204Z,86.65
2022-12-01T12:57:37.885Z,85.61
2022-12-01T13:00:21.335Z,85.33
2022-12-01T13:03:10.778Z,86.05
2022-12-01T13:05:53.472Z,85.90
2022-12-01T13:08:42.663Z,86.26
2022-12-01T13:11:27.686Z,85.81
2022-12-01T13:14:12.071Z,86.03
2022-12-01T13:16:47.488Z,85.82
2022-12-01T13:19:32.204Z,85.71
2022-12-01T13:22:01.804Z,86.22
2022-12-01T13:24:31.192Z,86.39
2022-12-01T13:27:05.697Z,86.73
2022-12-01T13:29:44.027Z,87.07
2022-12-01T13:32:37.231Z,87.16
2022-12-01T13:35:22.306Z,87.11
2022-12-01T13:37:52.750Z,87.87
2022-12-01T13:40:27.147Z,87.19
2022-12-01T13:43:10.236Z,87.47
2022-12-01T13:45:41.163Z,87.93
2022-12-01T13:48:49.937Z,87.57
2022-12-01T13:51:16.813Z,87.32
2022-12-01T13:54:16.753Z,87.35
2022-12-01T13:57:01.414Z,87.29
2022-12-01T14:00:00.340Z,87.54
2022-12-01T14:02:30.406Z,87.38
2022-12-01T14:05:23.307Z,87.26
2022-12-01T14:07:52.485Z,87.08
2022-12-01T14:10:32.128Z,87.44
2022-12-01T14:13:04.528Z,87.78
2022-12-01T14:15:42.446Z,87.31
2022-12-01T14:18:36.251Z,87.19
2022-12-01T14:21:07.689Z,87.54
2022-12-01T14:23:58.523Z,87.01
2022-12-01T14:26:29.607Z,87.10
2022-12-01T14:29:02.295Z,87.59
2022-12-01T14:31:35.247Z,87.81
2022-12-01T14:34:02.662Z,87.44
2022-12-01T14:36:40.913Z,86.87
2022-12-01T14:39:19.454Z,87.12
2022-12-01T14:41:49.102Z,86.96
2022-12-01T14:44:33.250Z,86.94
2022-12-01T14:47:05.162Z,87.33
2022-12-01T14:49:39.503Z,86.96
2022-12-01T14:52:17.674Z,87.28
2022-12-01T14:54:49.844Z,86.54
2022-12-01T14:57:23.410Z,86.80
2022-12-01T15:00:16.012Z,87.21
2022-12-01T15:03:07.096Z,86.89
2022-12-01T15:05:41.013Z,87.19
2022-12-01T15:11:30.100Z,87.16
2022-12-01T15:13:57.776Z,86.88
2022-12-01T15:16:28.984Z,86.96
2022-12-01T15:18:56.470Z,87.22
2022-12-01T15:21:30.925Z,87.47
2022-12-01T15:23:57.993Z,87.16
2022-12-01T15:26:29.770Z,87.37
2022-12-01T15:29:25.538Z,87.75
2022-12-01T15:32:02.814Z,87.70
2022-12-01T15:34:34.900Z,87.50
2022-12-01T15:37:10.995Z,87.76
2022-12-01T15:39:46.921Z,87.99
2022-12-01T15:42:27.625Z,87.04
2022-12-01T15:45:00.787Z,87.47
2022-12-01T15:47:43.414Z,87.59
2022-12-01T15:50:41.257Z,87.26
2022-12-01T15:53:27.042Z,87.63
2022-12-01T15:55:59.317Z,87.89
2022-12-01T15:58:32.889Z,87.54
2022-12-01T16:01:09.369Z,87.53
2022-12-01T16:03:56.327Z,87.70
2022-12-01T16:06:28.843Z,86.78
2022-12-01T16:09:06.740Z,87.35
2022-12-01T16:11:33.931Z,87.13
2022-12-01T16:14:20.181Z,87.04
2022-12-01T16:16:49.283Z,86.89
2022-12-01T16:19:16.300Z,86.54
2022-12-01T16:21:56.737Z,86.47
2022-12-01T16:24:27.599Z,86.90
2022-12-01T16:27:02.556Z,86.19
2022-12-01T16:29:50.481Z,86.85
2022-12-01T16:32:23.895Z,86.48
2022-12-01T16:34:55.909Z,86.73
2022-12-01T16:37:23.108Z,86.58
2022-12-01T16:39:50.497Z,86.70
2022-12-01T16:42:20.987Z,87.04
2022-12-01T16:44:49.887Z,86.50
2022-12-01T16:47:23.781Z,86.58
2022-12-01T16:49:52.283Z,87.23
2022-12-01T16:52:43.772Z,86.85
2022-12-01T16:55:31.609Z,86.91
2022-12-01T16:57:58.826Z,87.25
2022-12-01T17:00:25.964Z,87.45
2022-12-01T17:02:53.068Z,87.44
2022-12-01T17:05:20.101Z,87.57
2022-12-01T17:07:47.547Z,87.23
2022-12-01T17:10:15.872Z,87.55
2022-12-01T17:12:42.799Z,87.44
2022-12-01T17:15:10.398Z,87.63
2022-12-01T17:17:37.871Z,87.40
2022-12-01T17:20:06.083Z,87.81
2022-12-01T17:22:33.718Z,87.89
2022-12-01T17:25:02.188Z,87.67
2022-12-01T17:27:31.271Z,87.26
2022-12-01T17:29:58.871Z,87.52
2022-12-01T17:32:27.070Z,87.96
2022-12-01T17:34:54.342Z,87.67
2022-12-01T17:37:21.665Z,88.21
2022-12-01T17:39:50.134Z,87.57
2022-12-01T17:42:17.003Z,87.74
2022-12-01T17:44:44.066Z,88.07
2022-12-01T17:47:11.706Z,87.47
2022-12-01T17:49:38.755Z,87.68
2022-12-01T17:52:06.973Z,87.90
2022-12-01T17:54:33.928Z,87.47
2022-12-01T17:57:00.750Z,87.51
2022-12-01T17:59:27.636Z,87.44
2022-12-01T18:01:54.755Z,87.54
2022-12-01T18:04:21.769Z,87.21
2022-12-01T18:06:53.725Z,87.22
2022-12-01T18:09:21.983Z,87.74
2022-12-01T18:11:49.657Z,87.65
2022-12-01T18:14:17.665Z,87.74
2022-12-01T18:16:45.241Z,86.87
2022-12-01T18:19:12.403Z,87.33
2022-12-01T18:21:40.339Z,87.24
2022-12-01T18:24:11.017Z,86.91
2022-12-01T18:26:39.992Z,87.14
2022-12-01T18:29:12.460Z,87.20
2022-12-01T18:31:43.067Z,87.16
2022-12-01T18:34:12.939Z,87.13
2022-12-01T18:36:41.218Z,87.41
2022-12-01T18:39:10.944Z,87.11
2022-12-01T18:41:38.261Z,87.50
2022-12-01T18:44:05.864Z,87.61
2022-12-01T18:46:33.609Z,86.75
2022-12-01T18:49:02.731Z,86.92
2022-12-01T18:51:32.779Z,87.09
2022-12-01T18:54:01.654Z,86.88
2022-12-01T18:56:29.479Z,86.64
2022-12-01T18:58:58.305Z,87.54
2022-12-01T19:01:28.302Z,86.94
2022-12-01T19:03:56.616Z,86.90
2022-12-01T19:06:23.969Z,87.36
2022-12-01T19:08:52.308Z,86.68
2022-12-01T19:11:20.149Z,86.97
2022-12-01T19:13:47.767Z,87.00
2022-12-01T19:16:17.655Z,87.27
2022-12-01T19:18:45.280Z,87.07
2022-12-01T19:21:15.306Z,86.45
2022-12-01T19:23:43.489Z,86.51
2022-12-01T19:26:13.332Z,86.65
2022-12-01T19:28:42.085Z,86.66
2022-12-01T19:31:12.498Z,87.13
2022-12-01T19:33:40.417Z,86.73
2022-12-01T19:36:10.526Z,86.52
2022-12-01T19:38:38.672Z,87.18
2022-12-01T19:41:07.099Z,86.80
2022-12-01T19:43:35.245Z,86.42
2022-12-01T19:46:10.615Z,86.64
2022-12-01T19:48:38.092Z,86.45
2022-12-01T19:51:05.639Z,86.64
2022-12-01T19:53:34.043Z,86.67
2022-12-01T19:56:02.994Z,86.15
2022-12-01T19:58:33.209Z,86.50
2022-12-01T20:01:05.281Z,86.55
2022-12-01T20:03:32.526Z,86.44
2022-12-01T20:06:05.063Z,86.42
2022-12-01T20:08:35.660Z,85.88
2022-12-01T20:11:04.486Z,86.15
2022-12-01T20:13:34.007Z,85.24
2022-12-01T20:16:03.096Z,85.00
2022-12-01T20:18:31.060Z,85.51
2022-12-01T20:21:18.883Z,85.23
2022-12-01T20:24:07.252Z,84.75
2022-12-01T20:26:37.328Z,85.01
2022-12-01T20:29:26.241Z,84.95
2022-12-01T20:31:55.597Z,84.17
2022-12-01T20:34:26.926Z,84.44
2022-12-01T20:36:54.404Z,84.54
2022-12-01T20:39:22.574Z,84.64
2022-12-01T20:41:49.998Z,84.71
2022-12-01T20:44:17.503Z,84.74
2022-12-01T20:46:45.764Z,84.11
2022-12-01T20:49:15.074Z,84.30
2022-12-01T20:51:42.286Z,84.01
2022-12-01T20:54:29.101Z,84.68
2022-12-01T20:56:57.809Z,84.29
2022-12-01T20:59:24.806Z,83.27
2022-12-01T21:01:51.793Z,83.75
2022-12-01T21:04:18.746Z,84.16
2022-12-01T21:06:46.194Z,83.83
2022-12-01T21:09:14.573Z,84.00
2022-12-01T21:12:08.865Z,83.94
2022-12-01T21:14:53.859Z,83.88
2022-12-01T21:17:39.549Z,83.98
2022-12-01T21:20:21.288Z,83.63
2022-12-01T21:22:50.757Z,84.03
2022-12-01T21:25:23.343Z,83.92
2022-12-01T21:27:50.491Z,83.95
2022-12-01T21:30:21.787Z,84.00
2022-12-01T21:32:49.741Z,84.02
2022-12-01T21:35:24.914Z,84.24
2022-12-01T21:38:00.394Z,83.86
2022-12-01T21:40:28.355Z,83.88
2022-12-01T21:43:01.467Z,83.39
2022-12-01T21:45:31.952Z,83.13
2022-12-01T21:48:15.678Z,83.39
2022-12-01T21:50:42.645Z,83.07
2022-12-01T21:53:19.804Z,82.39
2022-12-01T21:55:47.839Z,82.89
2022-12-01T21:58:31.274Z,82.13
2022-12-01T22:00:59.893Z,81.53
2022-12-01T22:03:32.090Z,81.62
2022-12-01T22:06:29.676Z,81.27
2022-12-01T22:09:11.737Z,81.15
2022-12-01T22:11:38.570Z,80.24
2022-12-01T22:14:08.472Z,80.03
2022-12-01T22:16:38.213Z,80.33
2022-12-01T22:19:17.123Z,80.53
2022-12-01T22:21:48.915Z,80.56
2022-12-01T22:24:25.390Z,80.43
2022-12-01T22:27:17.143Z,79.66
2022-12-01T22:29:46.872Z,80.29
2022-12-01T22:32:13.630Z,79.92
2022-12-01T22:34:53.418Z,79.98
2022-12-01T22:37:32.468Z,80.14
2022-12-01T22:39:59.507Z,80.65
2022-12-01T22:42:34.972Z,80.46
2022-12-01T22:45:23.074Z,80.80
2022-12-01T22:47:51.492Z,80.53
2022-12-01T22:50:32.714Z,80.46
2022-12-01T22:53:11.886Z,80.55
2022-12-01T22:55:40.046Z,80.25
2022-12-01T22:58:22.376Z,80.65
2022-12-01T23:00:49.500Z,81.28
2022-12-01T23:03:16.638Z,80.46
2022-12-01T23:05:45.455Z,80.28
2022-12-01T23:08:22.004Z,80.21
2022-12-01T23:10:50.080Z,80.88
2022-12-01T23:13:25.689Z,81.19
2022-12-01T23:15:53.936Z,80.64
2022-12-01T23:18:28.471Z,80.86
2022-12-01T23:20:57.673Z,80.21
2022-12-01T23:23:36.591Z,80.84
2022-12-01T23:26:07.630Z,79.96
2022-12-01T23:28:39.251Z,80.29
2022-12-01T23:31:06.442Z,80.20
2022-12-01T23:33:34.901Z,80.14
2022-12-01T23:36:15.160Z,80.41
2022-12-01T23:38:45.916Z,80.57
2022-12-01T23:41:25.237Z,80.37
2022-12-01T23:43:55.776Z,79.90
2022-12-01T23:46:28.159Z,79.66
2022-12-01T23:49:13.882Z,80.36
2022-12-01T23:51:47.076Z,80.28
2022-12-01T23:54:21.267Z,80.62
2022-12-01T23:56:52.695Z,80.14
2022-12-01T23:59:20.759Z,79.74
